ADDS METAR Data INFO
IDs: Format: Raw Decoded Include TAF

Data at: 1635 UTC 22 Jul 2017

KLZZ 221615Z AUTO 22004KT CLR 33/21 A2999 RMK AO2 T03260212 PWINO
KLZZ 221555Z AUTO 25006KT CLR 33/21 A2999 RMK AO2 T03260212 PWINO
KLZZ 221535Z AUTO 22005KT CLR 33/22 A3000 RMK AO2 T03260221 PWINO
KLZZ 221515Z AUTO 23007KT CLR 33/23 A2999 RMK AO2 T03260227 PWINO
KLZZ 221455Z AUTO 21007KT CLR 31/22 A3000 RMK AO2 T03120223 PWINO
KLZZ 221435Z AUTO 24006KT CLR 30/22 A3000 RMK AO2 T02950218 PWINO
KLZZ 221415Z AUTO 23005KT CLR 29/22 A3000 RMK AO2 LTG DSNT E T02860221 PWINO
KLZZ 221355Z AUTO 24004KT CLR 28/23 A2999 RMK AO2 T02820227 PWINO
KLZZ 221335Z AUTO 21006KT CLR 27/23 A2999 RMK AO2 T02700226 PWINO
KLZZ 221315Z AUTO 22003KT CLR 27/23 A2999 RMK AO2 T02690231 PWINO
KLZZ 221255Z AUTO 21004KT CLR 26/22 A2998 RMK AO2 T02560222 PWINO
KLZZ 221235Z AUTO 00000KT CLR 24/22 A2998 RMK AO2 T02430215 PWINO
KLZZ 221215Z AUTO 00000KT SCT095 24/22 A2998 RMK AO2 T02420218 PWINO
KLZZ 221155Z AUTO 00000KT CLR 24/22 A2998 RMK AO2 T02420216 10277 20242 PWINO
KLZZ 221135Z AUTO 00000KT SCT100 24/22 A2998 RMK AO2 T02420217 PWINO
KLZZ 221115Z AUTO 00000KT SCT100 24/22 A2997 RMK AO2 T02420215 PWINO
KLZZ 221055Z AUTO 00000KT SCT100 24/21 A2997 RMK AO2 T02420214 PWINO
KLZZ 221035Z AUTO 00000KT CLR 25/22 A2996 RMK AO2 T02510217 PWINO
KLZZ 221015Z AUTO 17003KT CLR 25/22 A2996 RMK AO2 T02520220 PWINO
KLZZ 220955Z AUTO 20003KT CLR 26/22 A2996 RMK AO2 T02560222 PWINO
KLZZ 220935Z AUTO 21003KT CLR 26/22 A2996 RMK AO2 T02560222 PWINO
KLZZ 220915Z AUTO 00000KT CLR 26/22 A2996 RMK AO2 T02560220 PWINO
KLZZ 220855Z AUTO 00000KT CLR 26/22 A2996 RMK AO2 T02560218 PWINO
KLZZ 220835Z AUTO 00000KT CLR 27/23 A2996 RMK AO2 T02700228 PWINO
KLZZ 220815Z AUTO 19003KT CLR 27/22 A2996 RMK AO2 T02700223 PWINO
KLZZ 220755Z AUTO 17004KT CLR 27/22 A2996 RMK AO2 T02700220 PWINO
KLZZ 220735Z AUTO 17003KT CLR 27/22 A2997 RMK AO2 T02730218 PWINO
KLZZ 220715Z AUTO 18003KT CLR 28/22 A2996 RMK AO2 T02770218 PWINO
KLZZ 220655Z AUTO 17003KT CLR 28/22 A2996 RMK AO2 T02760216 PWINO
KLZZ 220635Z AUTO 17003KT CLR 27/20 A2997 RMK AO2 T02700204 PWINO
KLZZ 220615Z AUTO 00000KT CLR 27/20 A2997 RMK AO2 T02740200 PWINO
KLZZ 220555Z AUTO 00000KT CLR 28/20 A2997 RMK AO2 T02770196 10368 20272 403820242 PWINO
KLZZ 220535Z AUTO 15003KT CLR 27/19 A2997 RMK AO2 T02730191 PWINO
KLZZ 220515Z AUTO 12004KT CLR 28/19 A2997 RMK AO2 T02810190 PWINO
KLZZ 220455Z AUTO 00000KT CLR 29/19 A2997 RMK AO2 T02850187 PWINO
KLZZ 220435Z AUTO 00000KT CLR 29/19 A2997 RMK AO2 T02860186 PWINO
KLZZ 220415Z AUTO 11003KT CLR 31/19 A2997 RMK AO2 T03060193 PWINO
KLZZ 220355Z AUTO 17004KT CLR 31/19 A2996 RMK AO2 T03120191 PWINO
KLZZ 220335Z AUTO 16004KT CLR 33/20 A2996 RMK AO2 T03260196 PWINO
KLZZ 220315Z AUTO 16005KT CLR 33/19 A2995 RMK AO2 T03260192 PWINO
KLZZ 220255Z AUTO 16005KT CLR 33/19 A2995 RMK AO2 T03260188 PWINO
KLZZ 220235Z AUTO 15004KT CLR 33/18 A2994 RMK AO2 T03260182 PWINO
KLZZ 220215Z AUTO 15005KT CLR 33/18 A2993 RMK AO2 T03260177 PWINO
KLZZ 220155Z AUTO 15004KT CLR 33/18 A2992 RMK AO2 T03330175 PWINO
KLZZ 220135Z AUTO 14005KT CLR 34/17 A2992 RMK AO2 T03400173 PWINO
KLZZ 220115Z AUTO 14008KT CLR 36/18 A2991 RMK AO2 T03550178 PWINO
KLZZ 220055Z AUTO 13008KT CLR 36/17 A2991 RMK AO2 T03550171 PWINO
KLZZ 220035Z AUTO 16007KT CLR 36/17 A2991 RMK AO2 T03590169 PWINO
KLZZ 220015Z AUTO 14006KT CLR 37/18 A2991 RMK AO2 T03680175 PWINO
KLZZ 212355Z AUTO 16006KT CLR 37/17 A2991 RMK AO2 T03670172 10382 20355 PWINO
KLZZ 212335Z AUTO 14008KT CLR 37/17 A2991 RMK AO2 T03660172 PWINO
KLZZ 212315Z AUTO 16005KT CLR 37/17 A2991 RMK AO2 T03680169 PWINO
KLZZ 212255Z AUTO 16007G15KT CLR 37/17 A2992 RMK AO2 T03700172 PWINO
KLZZ 212235Z AUTO 15008KT CLR 37/17 A2993 RMK AO2 T03680173 PWINO
KLZZ 212215Z AUTO 14009KT SCT090 38/18 A2994 RMK AO2 T03770177 PWINO
KLZZ 212155Z AUTO 16008KT SCT080 38/18 A2994 RMK AO2 T03790177 PWINO
KLZZ 212135Z AUTO 12008G14KT BKN080 BKN100 38/18 A2994 RMK AO2 T03760175 PWINO
KLZZ 212115Z AUTO 12007KT SCT080 BKN100 37/17 A2995 RMK AO2 T03730174 PWINO
KLZZ 212055Z AUTO 14009KT SCT080 37/18 A2996 RMK AO2 T03720176 PWINO
KLZZ 212035Z AUTO 13009KT BKN080 38/18 A2997 RMK AO2 T03750179 PWINO
KLZZ 212015Z AUTO 18004KT CLR 37/18 A2998 RMK AO2 T03730181 PWINO
KLZZ 211955Z AUTO 20006KT CLR 37/18 A2999 RMK AO2 T03680179 PWINO
KLZZ 211935Z AUTO 18005KT SCT085 SCT110 37/18 A2999 RMK AO2 T03680179 PWINO
KLZZ 211915Z AUTO 15004KT SCT085 36/18 A3000 RMK AO2 T03550183 PWINO
KLZZ 211855Z AUTO 17009KT SCT085 36/19 A3001 RMK AO2 T03630193 PWINO
KLZZ 211835Z AUTO 13006KT SCT070 36/19 A3001 RMK AO2 T03580186 PWINO
KLZZ 211815Z AUTO 11006KT SCT070 36/19 A3002 RMK AO2 T03550194 PWINO
KLZZ 211755Z AUTO 15008KT CLR 36/19 A3002 RMK AO2 T03550194 10355 20242 PWINO
KLZZ 211735Z AUTO 18005KT CLR 36/20 A3003 RMK AO2 T03550202 PWINO
KLZZ 211715Z AUTO 17004KT CLR 36/21 A3004 RMK AO2 T03550206 PWINO
KLZZ 211655Z AUTO 21004KT CLR 35/21 A3004 RMK AO2 T03480209 PWINO
KLZZ 211635Z AUTO 21004KT CLR 34/21 A3004 RMK AO2 T03390206 PWINO
KLZZ 211615Z AUTO 22006KT CLR 33/20 A3005 RMK AO2 T03260204 PWINO
KLZZ 211555Z AUTO 18006KT CLR 33/21 A3006 RMK AO2 T03260206 PWINO
KLZZ 211535Z AUTO 22005KT CLR 33/21 A3006 RMK AO2 T03260214 PWINO
KLZZ 211515Z AUTO 22005KT CLR 33/22 A3006 RMK AO2 T03260219 PWINO
KLZZ 211455Z AUTO 20006KT CLR 31/22 A3006 RMK AO2 T03140217 PWINO
KLZZ 211435Z AUTO 22005KT CLR 31/22 A3006 RMK AO2 T03090217 PWINO
KLZZ 211415Z AUTO 22006KT CLR 29/21 A3006 RMK AO2 T02890211 PWINO
KLZZ 211355Z AUTO 22005KT CLR 28/22 A3006 RMK AO2 T02780219 PWINO
KLZZ 211335Z AUTO 22004KT CLR 27/22 A3006 RMK AO2 T02700223 PWINO
KLZZ 211315Z AUTO 19003KT CLR 26/22 A3006 RMK AO2 T02600222 PWINO
KLZZ 211255Z AUTO 00000KT CLR 26/22 A3005 RMK AO2 T02560221 PWINO
KLZZ 211235Z AUTO 00000KT CLR 24/22 A3004 RMK AO2 T02430216 PWINO
KLZZ 211215Z AUTO 00000KT CLR 24/22 A3004 RMK AO2 T02420218 PWINO
KLZZ 211155Z AUTO 00000KT 24/22 A3003 RMK AO2 T02420220 10285 20242 PWINO
KLZZ 211135Z AUTO 00000KT CLR 24/21 A3003 RMK AO2 T02420213 PWINO
KLZZ 211115Z AUTO 00000KT CLR 24/21 A3002 RMK AO2 T02420211 PWINO
KLZZ 211055Z AUTO 00000KT CLR 24/21 A3002 RMK AO2 T02420210 PWINO
KLZZ 211035Z AUTO 00000KT CLR 24/21 A3002 RMK AO2 T02430210 PWINO
KLZZ 211015Z AUTO 00000KT CLR 26/22 A3002 RMK AO2 T02560218 PWINO
KLZZ 210955Z AUTO 00000KT CLR 26/22 A3002 RMK AO2 T02560215 PWINO
KLZZ 210935Z AUTO 00000KT CLR 26/22 A3002 RMK AO2 T02560215 PWINO
KLZZ 210915Z AUTO 00000KT CLR 26/21 A3002 RMK AO2 T02580211 PWINO
KLZZ 210855Z AUTO 20003KT CLR 27/22 A3002 RMK AO2 T02700220 PWINO
KLZZ 210835Z AUTO 00000KT CLR 27/22 A3002 RMK AO2 T02700220 PWINO
KLZZ 210815Z AUTO 00000KT CLR 27/22 A3003 RMK AO2 T02700215 PWINO
KLZZ 210755Z AUTO 19003KT CLR 27/22 A3003 RMK AO2 T02710215 PWINO
KLZZ 210735Z AUTO 19003KT CLR 28/22 A3003 RMK AO2 T02760219 PWINO
KLZZ 210715Z AUTO 19004KT CLR 28/22 A3004 RMK AO2 T02770218 PWINO
KLZZ 210655Z AUTO 17005KT CLR 29/22 A3004 RMK AO2 T02850223 PWINO
KLZZ 210635Z AUTO 18004KT CLR 29/22 A3003 RMK AO2 T02850222 PWINO
KLZZ 210615Z AUTO 19005KT CLR 29/22 A3004 RMK AO2 T02850217 PWINO
KLZZ 210555Z AUTO 19005KT CLR 29/21 A3004 RMK AO2 T02850209 10368 20285 403760242 PWINO
KLZZ 210535Z AUTO 17004KT CLR 29/20 A3004 RMK AO2 T02860202 PWINO
KLZZ 210515Z AUTO 17006KT CLR 29/20 A3004 RMK AO2 T02860196 PWINO
KLZZ 210455Z AUTO 13003KT CLR 29/19 A3004 RMK AO2 T02850190 PWINO